Weather at Ballyhavil Farm Airfield

Public forecast

Using degrees Celsius for public forecast. Weather courtesy of forecast.io.

Closest aviation weather report (METAR) to Ballyhavil Farm Airfield

Closest report is Dublin Airport, 10.0 nm (18.5 km) SW.

2024/05/27 21:30 (retrieved 39 minutes ago)

EIDW 272130Z 20004KT 170V230 9999 FEW018 BKN060 13/08 Q1010 NOSIG

Closest aviation forecast (TAF) to Ballyhavil Farm Airfield

Closest forecast is Dublin Airport, 10.0 nm (18.5 km) SW.

2024/05/27 18:09 (retrieved 4 hours ago)

TAF EIDW 271700Z 2718/2818 22008KT 9999 FEW018 SCT030 BECMG 2719/2721 19005KT BECMG 2802/2804 14009KT TEMPO 2803/2810 4000 -RA BKN010 PROB30 TEMPO 2804/2807 2500 RADZ BKN005 BECMG 2806/2808 24012KT PROB40 TEMPO 2811/2818 25014G25KT PROB40 TEMPO 2812/2815 -SHRA FEW020CB TEMPO 2815/2818 -SHRA SCT020CB PROB30 TEMPO 2815/2817 4000 SHRA